This is the latest recevied weather packets stored in our database for station/object KR4BRU. If no packets are shown the sender has not sent any weather packets the latest 10 day(s).
| Time | Temp. | Humidity | Pressure | Rain* | Wind** | Luminosity | Snow |
|---|---|---|---|---|---|---|---|
| 1777681669 | 17.22° C | 56% | 1009.5 hPa | 0 mm | - | 1 W/m² | - |
| 1777681070 | 17.78° C | 55% | 1009.2 hPa | 0 mm | - | 2 W/m² | - |
| 1777680465 | 18.33° C | 52% | 1009 hPa | 0 mm | - | 5 W/m² | - |
| 1777679864 | 18.89° C | 51% | 1009.3 hPa | 0 mm | - | 11 W/m² | - |
| 1777679262 | 19.44° C | 51% | 1009.1 hPa | 0 mm | - | 16 W/m² | - |
| 1777678657 | 19.44° C | 47% | 1009.2 hPa | 0 mm | - | 21 W/m² | - |
| 1777678056 | 20° C | 48% | 1009.1 hPa | 0 mm | - | 26 W/m² | - |
| 1777677451 | 20° C | 47% | 1009.2 hPa | 0 mm | - | 34 W/m² | - |
| 1777676847 | 20° C | 47% | 1009 hPa | 0 mm | - | 47 W/m² | - |
| 1777676242 | 20.56° C | 49% | 1008.9 hPa | 0 mm | - | 62 W/m² | - |
| 1777675641 | 21.11° C | 52% | 1008.5 hPa | 0 mm | - | 73 W/m² | - |
| 1777675041 | 21.67° C | 52% | 1008.5 hPa | 0 mm | - | 80 W/m² | - |
| 1777674440 | 21.67° C | 39% | 1008.5 hPa | 0 mm | - | 88 W/m² | - |
| 1777673840 | 21.67° C | 38% | 1008.4 hPa | 0 mm | - | 78 W/m² | - |
| 1777673234 | 22.22° C | 35% | 1008.3 hPa | 0 mm | - | 102 W/m² | - |
| 1777672634 | 22.22° C | 32% | 1008.7 hPa | 0 mm | - | 128 W/m² | - |
| 1777672031 | 22.22° C | 32% | 1008.8 hPa | 0 mm | - | 151 W/m² | - |
| 1777671429 | 22.22° C | 34% | 1008.9 hPa | 0 mm | - | 153 W/m² | - |
| 1777670828 | 22.22° C | 31% | 1008.9 hPa | 0 mm | - | 149 W/m² | - |
| 1777670227 | 22.22° C | 33% | 1009.2 hPa | 0 mm | - | 171 W/m² | - |
| 1777669627 | 22.22° C | 32% | 1009.3 hPa | 0 mm | - | 193 W/m² | - |
| 1777669026 | 22.78° C | 30% | 1009.3 hPa | 0 mm | - | 224 W/m² | - |
| 1777668426 | 22.78° C | 32% | 1009.4 hPa | 0 mm | - | 228 W/m² | - |
| 1777667824 | 22.22° C | 33% | 1009.5 hPa | 0 mm | - | 230 W/m² | - |
| 1777667224 | 21.67° C | 33% | 1009.7 hPa | 0 mm | - | 290 W/m² | - |
* Rain latest hour (hover to see other rain measurements)
** Current wind speed in m/s (hover to see current wind gust speed)